Time;durP1;ratioP1;P1;durP2;ratioP2;P2;SDS_P1;SDS_P2;PMS_P1;PMS_P2;Temp;Humidity;BMP_temperature;BMP_pressure;BME280_temperature;BME280_humidity;BME280_pressure;Samples;Min_cycle;Max_cycle;Signal;HPM_P1;HPM_P2
2022/01/15 00:00:14;;;;;;;65.78;31.90;;;4.80;99.90;;;;;;2087452;28;20017;-72
2022/01/15 00:01:15;;;;;;;61.47;31.63;;;4.80;99.90;;;;;;2095564;28;20052;-70
2022/01/15 00:02:16;;;;;;;62.42;32.10;;;4.80;99.90;;;;;;2084244;28;20111;-71
2022/01/15 00:03:18;;;;;;;61.13;31.30;;;4.80;99.90;;;;;;2080501;28;20546;-72
2022/01/15 00:04:19;;;;;;;65.10;32.92;;;4.80;99.90;;;;;;2080570;28;20538;-71
2022/01/15 00:05:20;;;;;;;64.57;32.53;;;4.80;99.90;;;;;;2086149;28;20036;-72
2022/01/15 00:06:21;;;;;;;62.88;33.00;;;4.80;99.90;;;;;;2075175;28;20408;-72
2022/01/15 00:07:22;;;;;;;64.63;32.05;;;4.80;99.90;;;;;;2076806;28;20042;-72
2022/01/15 00:08:29;;;;;;;63.33;33.15;;;4.80;99.90;;;;;;2085844;28;20056;-71
2022/01/15 00:09:43;;;;;;;66.82;32.72;;;4.80;99.90;;;;;;2085301;28;20052;-72
2022/01/15 00:10:44;;;;;;;61.40;31.67;;;4.80;99.90;;;;;;2094995;28;20071;-71
2022/01/15 00:11:48;;;;;;;62.03;32.45;;;4.80;99.90;;;;;;2090345;28;20431;-70
2022/01/15 00:12:58;;;;;;;59.10;31.13;;;4.80;99.90;;;;;;2086383;28;20040;-71
2022/01/15 00:14:12;;;;;;;65.95;32.65;;;4.80;99.90;;;;;;2075356;28;20113;-71
2022/01/15 00:15:20;;;;;;;80.47;47.05;;;4.80;99.90;;;;;;2075860;28;20413;-71
2022/01/15 00:16:45;;;;;;;68.22;34.83;;;4.80;99.90;;;;;;2088046;28;20530;-70
2022/01/15 00:18:06;;;;;;;66.57;32.55;;;4.80;99.90;;;;;;2085718;28;20028;-72
2022/01/15 00:19:09;;;;;;;63.35;31.90;;;4.80;99.90;;;;;;2073308;28;20432;-71
2022/01/15 00:20:14;;;;;;;62.40;31.92;;;4.70;99.90;;;;;;2079810;28;20037;-70
2022/01/15 00:21:15;;;;;;;62.28;31.73;;;4.80;99.90;;;;;;2080522;28;20033;-72
2022/01/15 00:22:18;;;;;;;66.18;33.22;;;4.80;99.90;;;;;;2087093;28;20021;-71
2022/01/15 00:23:19;;;;;;;65.55;32.78;;;4.80;99.90;;;;;;2086173;28;20060;-71
2022/01/15 00:24:22;;;;;;;67.35;33.58;;;4.80;99.90;;;;;;2072617;28;20432;-72
2022/01/15 00:25:24;;;;;;;67.10;33.10;;;4.70;99.90;;;;;;2086264;28;20029;-70
2022/01/15 00:26:25;;;;;;;69.05;34.03;;;4.70;99.90;;;;;;2088565;28;20029;-69
2022/01/15 00:27:26;;;;;;;64.68;33.08;;;4.70;99.90;;;;;;2085534;28;20028;-72
2022/01/15 00:28:27;;;;;;;64.88;33.38;;;4.70;99.90;;;;;;2091415;28;20460;-72
2022/01/15 00:29:30;;;;;;;63.60;32.08;;;4.70;99.90;;;;;;2084056;28;20029;-69
2022/01/15 00:30:30;;;;;;;68.63;33.83;;;4.70;99.90;;;;;;2088087;28;20463;-70
2022/01/15 00:31:32;;;;;;;68.97;34.08;;;4.70;99.90;;;;;;2084019;28;20025;-69
2022/01/15 00:32:33;;;;;;;65.82;33.30;;;4.70;99.90;;;;;;2077056;28;20040;-69
2022/01/15 00:33:37;;;;;;;61.72;32.45;;;4.70;99.90;;;;;;2079918;28;20116;-71
2022/01/15 00:34:38;;;;;;;64.05;33.00;;;4.70;99.90;;;;;;2079085;28;20508;-71
2022/01/15 00:35:38;;;;;;;65.80;33.03;;;4.70;99.90;;;;;;2082333;28;20029;-69
2022/01/15 00:36:39;;;;;;;67.93;33.85;;;4.70;99.90;;;;;;2080018;28;20436;-72
2022/01/15 00:37:41;;;;;;;68.35;33.58;;;4.70;99.90;;;;;;2085118;28;20021;-72
2022/01/15 00:38:43;;;;;;;66.60;34.03;;;4.70;99.90;;;;;;2088826;28;20025;-72
2022/01/15 00:39:44;;;;;;;65.10;33.58;;;4.70;99.90;;;;;;2088636;28;20013;-71
2022/01/15 00:40:47;;;;;;;69.75;34.60;;;4.70;99.90;;;;;;2097921;28;20025;-72
2022/01/15 00:41:48;;;;;;;67.35;33.83;;;4.70;99.90;;;;;;2090972;28;20762;-72
2022/01/15 00:42:49;;;;;;;64.60;33.92;;;4.70;99.90;;;;;;2096715;28;20044;-71
2022/01/15 00:43:50;;;;;;;63.92;33.03;;;4.70;99.90;;;;;;2090901;28;20029;-72
2022/01/15 00:44:52;;;;;;;66.47;33.40;;;4.70;99.90;;;;;;2089336;28;20066;-71
2022/01/15 00:45:55;;;;;;;65.55;33.28;;;4.70;99.90;;;;;;2089417;28;20024;-71
2022/01/15 00:47:01;;;;;;;64.88;33.22;;;4.70;99.90;;;;;;2080129;28;20025;-72
2022/01/15 00:48:02;;;;;;;67.18;33.85;;;4.70;99.90;;;;;;2080382;28;20468;-72
2022/01/15 00:49:04;;;;;;;70.47;33.88;;;4.70;99.90;;;;;;2079872;28;20026;-71
2022/01/15 00:50:09;;;;;;;65.45;33.70;;;4.70;99.90;;;;;;2086307;28;20430;-70
2022/01/15 00:51:09;;;;;;;69.28;33.95;;;4.70;99.90;;;;;;2096515;28;20456;-70
2022/01/15 00:52:12;;;;;;;65.35;33.42;;;4.60;99.90;;;;;;2092623;28;20040;-70
2022/01/15 00:53:13;;;;;;;68.68;34.15;;;4.70;99.90;;;;;;2080727;28;20104;-70
2022/01/15 00:54:14;;;;;;;65.30;33.35;;;4.70;99.90;;;;;;2082099;28;20060;-70
2022/01/15 00:55:17;;;;;;;66.50;33.63;;;4.70;99.90;;;;;;2086294;28;20043;-70
2022/01/15 00:56:20;;;;;;;63.15;33.33;;;4.70;99.90;;;;;;2090189;28;20116;-70
2022/01/15 00:57:24;;;;;;;70.07;34.50;;;4.70;99.90;;;;;;2079314;28;20748;-69
2022/01/15 00:58:27;;;;;;;66.78;33.72;;;4.70;99.90;;;;;;2071562;28;20746;-70
2022/01/15 00:59:28;;;;;;;66.93;33.30;;;4.60;99.90;;;;;;2084939;28;20029;-71
2022/01/15 01:00:29;;;;;;;63.38;34.25;;;4.60;99.90;;;;;;2085891;28;20027;-70
2022/01/15 01:01:34;;;;;;;62.88;34.00;;;4.60;99.90;;;;;;2083643;28;20048;-70
2022/01/15 01:02:35;;;;;;;67.80;34.10;;;4.60;99.90;;;;;;2082753;28;20707;-69
2022/01/15 01:03:38;;;;;;;69.15;33.92;;;4.70;99.90;;;;;;2076188;28;20025;-71
2022/01/15 01:04:39;;;;;;;63.17;32.97;;;4.60;99.90;;;;;;2087250;28;20057;-72
2022/01/15 01:05:40;;;;;;;66.47;33.60;;;4.60;99.90;;;;;;2095447;28;20028;-70
2022/01/15 01:06:41;;;;;;;66.90;34.13;;;4.60;99.90;;;;;;2081248;28;20036;-69
2022/01/15 01:07:42;;;;;;;69.95;34.92;;;4.70;99.90;;;;;;2073126;28;20516;-69
2022/01/15 01:08:44;;;;;;;66.95;34.00;;;4.60;99.90;;;;;;2075269;28;20511;-70
2022/01/15 01:10:55;;;;;;;64.25;32.78;;;4.60;99.90;;;;;;2086399;28;20141;-71
2022/01/15 01:11:59;;;;;;;61.30;31.67;;;4.60;99.90;;;;;;2082784;28;20075;-69
2022/01/15 01:20:53;;;;;;;69.38;34.53;;;4.60;99.90;;;;;;2085434;28;20033;-69
2022/01/15 01:23:17;;;;;;;67.05;32.75;;;4.70;99.90;;;;;;2087939;28;20025;-69
2022/01/15 01:24:19;;;;;;;62.17;32.38;;;4.60;99.90;;;;;;2092375;28;20033;-70
2022/01/15 01:25:20;;;;;;;59.08;32.25;;;4.70;99.90;;;;;;2094443;28;20498;-71
2022/01/15 01:26:33;;;;;;;63.63;32.95;;;4.70;99.90;;;;;;2095837;28;20057;-73
2022/01/15 01:27:45;;;;;;;61.22;31.67;;;4.70;99.90;;;;;;2093340;28;20108;-70
2022/01/15 01:28:55;;;;;;;62.53;31.95;;;4.70;99.90;;;;;;2090807;28;20041;-70
2022/01/15 01:30:10;;;;;;;62.53;32.10;;;4.70;99.90;;;;;;2097097;28;20052;-71
2022/01/15 01:32:58;;;;;;;60.15;31.40;;;4.70;99.90;;;;;;2089716;28;20109;-70
2022/01/15 01:33:40;;;;;;;60.50;30.85;;;4.70;99.90;;;;;;2078772;28;20036;-71
2022/01/15 01:34:43;;;;;;;59.60;30.65;;;4.70;99.90;;;;;;2082520;28;20029;-70
2022/01/15 01:35:48;;;;;;;62.58;32.28;;;4.70;99.90;;;;;;2087892;28;20020;-71
2022/01/15 01:38:31;;;;;;;60.28;30.35;;;4.70;99.90;;;;;;2079452;28;20041;-71
2022/01/15 01:39:43;;;;;;;56.63;30.63;;;4.70;99.90;;;;;;2074401;28;20083;-70
2022/01/15 01:40:48;;;;;;;59.53;30.38;;;4.70;99.90;;;;;;2080229;28;20042;-70
2022/01/15 01:44:24;;;;;;;57.33;30.42;;;4.70;99.90;;;;;;2087717;28;20081;-71
2022/01/15 01:45:24;;;;;;;59.47;31.23;;;4.70;99.90;;;;;;2071905;28;20580;-70
2022/01/15 01:47:48;;;;;;;56.13;30.15;;;4.70;99.90;;;;;;2082976;28;20036;-70
2022/01/15 01:48:48;;;;;;;56.90;29.88;;;4.70;99.90;;;;;;2081999;28;20037;-71
2022/01/15 01:49:55;;;;;;;57.72;31.85;;;4.70;99.90;;;;;;2085083;28;20033;-70
2022/01/15 01:50:59;;;;;;;58.60;29.52;;;4.70;99.90;;;;;;2071804;28;20036;-70
2022/01/15 01:51:59;;;;;;;56.97;29.65;;;4.70;99.90;;;;;;2077009;28;20101;-69
2022/01/15 01:53:00;;;;;;;57.65;29.60;;;4.70;99.90;;;;;;2088142;28;20044;-70
2022/01/15 01:54:04;;;;;;;54.55;29.55;;;4.70;99.90;;;;;;2088529;28;20033;-69
2022/01/15 01:55:05;;;;;;;57.33;30.05;;;4.70;99.90;;;;;;2087947;28;20527;-69
2022/01/15 01:56:06;;;;;;;52.85;29.02;;;4.70;99.90;;;;;;2088481;28;20071;-69
2022/01/15 01:57:11;;;;;;;53.85;28.63;;;4.70;99.90;;;;;;2079732;28;20033;-69
2022/01/15 01:58:14;;;;;;;62.17;30.13;;;4.80;99.90;;;;;;2082231;28;20029;-69
2022/01/15 01:59:16;;;;;;;57.40;30.10;;;4.70;99.90;;;;;;2098088;28;20025;-69
2022/01/15 02:00:19;;;;;;;56.25;30.08;;;4.70;99.90;;;;;;2098496;28;20521;-70
2022/01/15 02:01:27;;;;;;;57.17;30.90;;;4.70;99.90;;;;;;2097735;28;20544;-72
2022/01/15 02:02:33;;;;;;;57.60;30.45;;;4.70;99.90;;;;;;2087754;28;20017;-69
2022/01/15 02:03:34;;;;;;;55.83;30.63;;;4.70;99.90;;;;;;2082677;28;20033;-70
2022/01/15 02:04:35;;;;;;;56.58;29.08;;;4.70;99.90;;;;;;2092452;28;20060;-70
2022/01/15 02:05:39;;;;;;;57.03;29.75;;;4.70;99.90;;;;;;2095791;28;20471;-69
2022/01/15 02:06:40;;;;;;;53.80;28.92;;;4.70;99.90;;;;;;2096068;28;20656;-70
2022/01/15 02:07:43;;;;;;;58.10;30.20;;;4.70;99.90;;;;;;2090480;28;20029;-70
2022/01/15 02:08:45;;;;;;;54.80;30.17;;;4.70;99.90;;;;;;2081424;28;20483;-71
2022/01/15 02:09:46;;;;;;;59.58;29.38;;;4.70;99.90;;;;;;2089218;28;20545;-70
2022/01/15 02:10:47;;;;;;;55.28;29.38;;;4.70;99.90;;;;;;2089242;28;20174;-70
2022/01/15 02:11:54;;;;;;;56.80;29.63;;;4.70;99.90;;;;;;2088750;28;20033;-69
2022/01/15 02:12:55;;;;;;;57.97;30.38;;;4.70;99.90;;;;;;2084664;28;20036;-72
2022/01/15 02:13:59;;;;;;;55.25;29.40;;;4.70;99.90;;;;;;2081237;28;20755;-70
2022/01/15 02:15:12;;;;;;;59.67;31.08;;;4.60;99.90;;;;;;2080945;28;20040;-69
2022/01/15 02:16:14;;;;;;;56.95;29.23;;;4.60;99.90;;;;;;2091720;28;20120;-71
2022/01/15 02:17:18;;;;;;;56.42;29.15;;;4.60;99.90;;;;;;2097342;28;20043;-70
2022/01/15 02:18:23;;;;;;;57.22;29.75;;;4.60;99.90;;;;;;2092759;28;20052;-70
2022/01/15 02:19:44;;;;;;;56.50;29.23;;;4.60;99.90;;;;;;2081500;28;20029;-70
2022/01/15 02:24:17;;;;;;;55.55;28.27;;;4.60;99.90;;;;;;2089891;28;20025;-70
2022/01/15 02:25:18;;;;;;;54.40;27.50;;;4.50;99.90;;;;;;2080859;28;20492;-70
2022/01/15 02:26:24;;;;;;;52.35;27.08;;;4.50;99.90;;;;;;2081268;28;20040;-70
2022/01/15 02:27:25;;;;;;;55.20;27.52;;;4.50;99.90;;;;;;2090264;28;20025;-69
2022/01/15 02:28:37;;;;;;;50.55;27.88;;;4.50;99.90;;;;;;2081901;28;20045;-71
2022/01/15 02:29:38;;;;;;;51.28;26.45;;;4.50;99.90;;;;;;2088837;28;20467;-71
2022/01/15 02:30:39;;;;;;;53.17;27.60;;;4.50;99.90;;;;;;2091919;28;20040;-70
2022/01/15 02:31:39;;;;;;;50.92;26.00;;;4.50;99.90;;;;;;2089106;28;20029;-71
2022/01/15 02:32:40;;;;;;;50.75;26.40;;;4.50;99.90;;;;;;2082089;28;20064;-69
2022/01/15 02:33:44;;;;;;;49.03;26.73;;;4.50;99.90;;;;;;2081360;28;20021;-69
2022/01/15 02:34:44;;;;;;;54.05;26.60;;;4.40;99.90;;;;;;2092909;28;20041;-70
2022/01/15 02:35:45;;;;;;;51.42;26.73;;;4.40;99.90;;;;;;2091322;28;20028;-70
2022/01/15 02:36:46;;;;;;;50.70;26.95;;;4.40;99.90;;;;;;2097931;28;20025;-70
2022/01/15 02:37:46;;;;;;;50.25;26.73;;;4.40;99.90;;;;;;2097839;28;20024;-69
2022/01/15 02:38:48;;;;;;;51.20;26.75;;;4.40;99.90;;;;;;2097825;28;20037;-69
2022/01/15 02:39:48;;;;;;;52.95;26.73;;;4.40;99.90;;;;;;2097661;28;20025;-70
2022/01/15 02:40:50;;;;;;;54.70;26.73;;;4.40;99.90;;;;;;2098071;28;20125;-68
2022/01/15 02:41:53;;;;;;;50.50;26.88;;;4.40;99.90;;;;;;2097288;28;20498;-69
2022/01/15 02:42:56;;;;;;;50.90;25.80;;;4.40;99.90;;;;;;2089048;28;20027;-70
2022/01/15 02:43:59;;;;;;;51.35;26.77;;;4.40;99.90;;;;;;2088747;28;20056;-69
2022/01/15 02:45:01;;;;;;;53.38;26.77;;;4.40;99.90;;;;;;2097921;28;20025;-69
2022/01/15 02:48:10;;;;;;;52.83;26.33;;;4.40;99.90;;;;;;2089377;28;20140;-70
2022/01/15 02:48:54;;;;;;;46.60;24.63;;;4.40;99.90;;;;;;2084415;28;20464;-71
2022/01/15 02:49:55;;;;;;;53.35;25.10;;;4.40;99.90;;;;;;2089098;28;20028;-71
2022/01/15 02:50:57;;;;;;;50.00;25.65;;;4.40;99.90;;;;;;2089737;28;20096;-72
2022/01/15 02:52:00;;;;;;;51.42;25.15;;;4.40;99.90;;;;;;2096965;28;20033;-70
2022/01/15 02:53:03;;;;;;;50.80;25.05;;;4.40;99.90;;;;;;2098686;28;20027;-70
2022/01/15 02:54:05;;;;;;;54.38;25.40;;;4.40;99.90;;;;;;2094438;28;20108;-70
2022/01/15 02:55:07;;;;;;;48.75;23.92;;;4.40;99.90;;;;;;2090363;28;20072;-72
2022/01/15 02:56:10;;;;;;;50.72;25.15;;;4.40;99.90;;;;;;2080591;28;20038;-71
2022/01/15 02:57:11;;;;;;;49.80;24.10;;;4.40;99.90;;;;;;2073701;28;20370;-70
2022/01/15 02:58:16;;;;;;;43.17;23.38;;;4.40;99.90;;;;;;2083060;28;20084;-71
2022/01/15 02:59:25;;;;;;;51.58;23.33;;;4.40;99.90;;;;;;2084025;28;20017;-70
2022/01/15 03:00:27;;;;;;;44.47;22.63;;;4.30;99.90;;;;;;2086731;28;20023;-68
2022/01/15 03:01:28;;;;;;;45.70;22.70;;;4.40;99.90;;;;;;2093608;28;20160;-69
2022/01/15 03:02:31;;;;;;;45.95;21.05;;;4.30;99.90;;;;;;2095457;28;20041;-69
2022/01/15 03:03:34;;;;;;;45.38;21.77;;;4.40;99.90;;;;;;2103036;28;20056;-69
2022/01/15 03:04:35;;;;;;;44.67;21.42;;;4.30;99.90;;;;;;2093498;28;20021;-70
2022/01/15 03:05:35;;;;;;;43.92;21.48;;;4.30;99.90;;;;;;2082941;28;20057;-69
2022/01/15 03:06:36;;;;;;;41.53;20.67;;;4.30;99.90;;;;;;2090796;28;20504;-69
2022/01/15 03:07:37;;;;;;;44.92;21.63;;;4.30;99.90;;;;;;2094820;28;20056;-69
2022/01/15 03:08:42;;;;;;;41.95;20.40;;;4.30;99.90;;;;;;2084862;28;20029;-70
2022/01/15 03:09:43;;;;;;;44.95;21.08;;;4.30;99.90;;;;;;2090163;28;20025;-72
2022/01/15 03:10:44;;;;;;;45.53;21.65;;;4.30;99.90;;;;;;2099488;28;20040;-71
2022/01/15 03:11:44;;;;;;;44.17;21.45;;;4.30;99.90;;;;;;2088853;28;20036;-69
2022/01/15 03:12:45;;;;;;;48.33;22.13;;;4.30;99.90;;;;;;2080771;28;20038;-70
2022/01/15 03:13:47;;;;;;;43.78;20.90;;;4.30;99.90;;;;;;2088712;28;20550;-70
2022/01/15 03:14:48;;;;;;;41.97;20.58;;;4.30;99.90;;;;;;2090465;28;20024;-70
2022/01/15 03:15:49;;;;;;;43.38;20.05;;;4.30;99.90;;;;;;2088135;28;20044;-71
2022/01/15 03:17:00;;;;;;;41.83;20.52;;;4.30;99.90;;;;;;2090855;28;20408;-70
2022/01/15 03:18:01;;;;;;;44.00;19.33;;;4.30;99.90;;;;;;2088848;28;20021;-69
2022/01/15 03:19:01;;;;;;;45.88;20.67;;;4.30;99.90;;;;;;2087988;28;20495;-71
2022/01/15 03:20:05;;;;;;;40.35;19.45;;;4.30;99.90;;;;;;2089348;28;20036;-69
2022/01/15 03:21:06;;;;;;;42.95;20.85;;;4.30;99.90;;;;;;2089362;28;20124;-73
2022/01/15 03:22:06;;;;;;;48.83;20.27;;;4.30;99.90;;;;;;2088703;28;20017;-73
2022/01/15 03:23:07;;;;;;;43.05;20.52;;;4.30;99.90;;;;;;2089229;28;20025;-69
2022/01/15 03:24:10;;;;;;;44.10;20.67;;;4.40;99.90;;;;;;2089952;28;20059;-70
2022/01/15 03:25:12;;;;;;;43.75;20.60;;;4.30;99.90;;;;;;2096569;28;20479;-70
2022/01/15 03:26:13;;;;;;;42.00;20.95;;;4.40;99.90;;;;;;2097415;28;20036;-71
2022/01/15 03:27:14;;;;;;;43.33;19.55;;;4.40;99.90;;;;;;2088676;28;20021;-70
2022/01/15 03:28:15;;;;;;;38.95;19.60;;;4.40;99.90;;;;;;2080440;28;20113;-70
2022/01/15 03:29:16;;;;;;;36.75;18.70;;;4.40;99.90;;;;;;2080220;28;20724;-70
2022/01/15 03:30:22;;;;;;;41.03;20.33;;;4.40;99.90;;;;;;2088898;28;20390;-70
2022/01/15 03:31:23;;;;;;;43.95;20.90;;;4.40;99.90;;;;;;2097177;28;20036;-73
2022/01/15 03:32:23;;;;;;;42.35;21.35;;;4.40;99.90;;;;;;2093508;28;20029;-69
2022/01/15 03:33:25;;;;;;;43.05;20.85;;;4.40;99.90;;;;;;2089663;28;20068;-70
2022/01/15 03:34:29;;;;;;;44.35;20.80;;;4.40;99.90;;;;;;2088986;28;20025;-71
2022/01/15 03:35:30;;;;;;;40.33;19.33;;;4.50;99.90;;;;;;2089305;28;20083;-71
2022/01/15 03:36:31;;;;;;;44.03;20.95;;;4.50;99.90;;;;;;2082728;28;20026;-70
2022/01/15 03:37:34;;;;;;;42.55;20.17;;;4.40;99.90;;;;;;2080261;28;20029;-69
2022/01/15 03:38:35;;;;;;;46.38;21.35;;;4.40;99.90;;;;;;2088853;28;20090;-71
2022/01/15 03:39:37;;;;;;;46.25;20.83;;;4.40;99.90;;;;;;2088696;28;20021;-70
2022/01/15 03:40:38;;;;;;;39.85;20.63;;;4.40;99.90;;;;;;2084464;28;20852;-71
2022/01/15 03:41:39;;;;;;;38.15;19.40;;;4.40;99.90;;;;;;2088341;28;20040;-71
2022/01/15 03:42:40;;;;;;;42.60;20.88;;;4.40;99.90;;;;;;2079857;28;20036;-69
2022/01/15 03:43:41;;;;;;;44.50;20.77;;;4.40;99.90;;;;;;2079626;28;20115;-70
2022/01/15 03:44:49;;;;;;;41.78;21.08;;;4.40;99.90;;;;;;2082484;28;20108;-70
2022/01/15 03:45:52;;;;;;;42.58;20.83;;;4.40;99.90;;;;;;2072846;28;20121;-70
2022/01/15 03:46:56;;;;;;;44.83;20.27;;;4.40;99.90;;;;;;2081130;28;20033;-70
2022/01/15 03:47:59;;;;;;;43.05;20.17;;;4.40;99.90;;;;;;2080271;28;20052;-70
2022/01/15 03:49:03;;;;;;;46.88;21.73;;;4.40;99.90;;;;;;2085358;28;20450;-70
2022/01/15 03:50:05;;;;;;;44.28;21.20;;;4.40;99.90;;;;;;2080121;28;20048;-69
2022/01/15 03:51:05;;;;;;;42.72;21.40;;;4.40;99.90;;;;;;2080246;28;20021;-70
2022/01/15 03:52:07;;;;;;;42.65;20.63;;;4.40;99.90;;;;;;2095562;28;20538;-70
2022/01/15 03:53:11;;;;;;;42.78;20.60;;;4.40;99.90;;;;;;2088309;28;20503;-71
2022/01/15 03:54:20;;;;;;;41.33;20.33;;;4.40;99.90;;;;;;2080970;28;20033;-71
2022/01/15 03:55:24;;;;;;;39.15;20.25;;;4.40;99.90;;;;;;2089705;28;20500;-71
2022/01/15 03:56:24;;;;;;;40.33;20.48;;;4.40;99.90;;;;;;2087438;28;20036;-71
2022/01/15 03:57:25;;;;;;;44.15;21.40;;;4.40;99.90;;;;;;2088285;28;20036;-71
2022/01/15 03:58:26;;;;;;;44.38;21.48;;;4.40;99.90;;;;;;2088963;28;20106;-70
2022/01/15 03:59:27;;;;;;;41.50;21.05;;;4.40;99.90;;;;;;2080209;28;20527;-67
2022/01/15 04:00:29;;;;;;;40.00;20.42;;;4.40;99.90;;;;;;2071882;28;20444;-70
2022/01/15 04:01:32;;;;;;;43.92;20.58;;;4.40;99.90;;;;;;2080040;28;20416;-70
2022/01/15 04:02:33;;;;;;;45.47;21.35;;;4.40;99.90;;;;;;2088729;28;20506;-71
2022/01/15 04:03:33;;;;;;;40.40;19.98;;;4.40;99.90;;;;;;2088706;28;20036;-71
2022/01/15 04:04:42;;;;;;;44.63;21.38;;;4.30;99.90;;;;;;2084625;28;20028;-70
2022/01/15 04:05:43;;;;;;;48.97;21.70;;;4.30;99.90;;;;;;2081028;28;20507;-69
2022/01/15 04:06:44;;;;;;;43.03;20.45;;;4.30;99.90;;;;;;2088493;28;20040;-70
2022/01/15 04:07:45;;;;;;;41.70;20.88;;;4.30;99.90;;;;;;2088137;28;20029;-70
2022/01/15 04:08:45;;;;;;;42.47;20.42;;;4.30;99.90;;;;;;2097419;28;20071;-72
2022/01/15 04:09:48;;;;;;;42.80;20.90;;;4.30;99.90;;;;;;2097041;28;20028;-70
2022/01/15 04:10:51;;;;;;;43.65;21.52;;;4.30;99.90;;;;;;2096773;28;20552;-70
2022/01/15 04:11:52;;;;;;;43.97;20.05;;;4.30;99.90;;;;;;2079188;28;20393;-71
2022/01/15 04:12:56;;;;;;;40.17;19.80;;;4.30;99.90;;;;;;2080485;28;20539;-70
2022/01/15 04:13:57;;;;;;;45.53;21.17;;;4.30;99.90;;;;;;2089602;28;20439;-73
2022/01/15 04:15:05;;;;;;;39.10;19.65;;;4.30;99.90;;;;;;2081975;28;20057;-70
2022/01/15 04:16:05;;;;;;;41.97;20.05;;;4.20;99.90;;;;;;2090759;28;20017;-71
2022/01/15 04:17:09;;;;;;;43.17;18.70;;;4.20;99.90;;;;;;2080868;28;20025;-70
2022/01/15 04:18:11;;;;;;;43.78;19.63;;;4.20;99.90;;;;;;2082200;28;20029;-73
2022/01/15 04:19:12;;;;;;;43.65;19.10;;;4.20;99.90;;;;;;2083619;28;20060;-71
2022/01/15 04:20:16;;;;;;;39.63;18.65;;;4.20;99.90;;;;;;2090550;28;20025;-71
2022/01/15 04:21:17;;;;;;;43.00;18.92;;;4.20;99.90;;;;;;2089929;28;20487;-71
2022/01/15 04:22:18;;;;;;;45.08;18.35;;;4.10;99.90;;;;;;2089373;28;20025;-71
2022/01/15 04:23:19;;;;;;;42.92;17.23;;;4.10;99.90;;;;;;2082179;28;20040;-71
2022/01/15 04:24:20;;;;;;;42.10;17.70;;;4.10;99.90;;;;;;2085951;28;20025;-72
2022/01/15 04:25:22;;;;;;;39.67;17.48;;;4.10;99.90;;;;;;2090192;28;20029;-71
2022/01/15 04:26:25;;;;;;;39.30;16.65;;;4.10;99.90;;;;;;2089865;28;20029;-69
2022/01/15 04:27:25;;;;;;;41.17;16.45;;;4.00;99.90;;;;;;2097121;28;20124;-70
2022/01/15 04:28:28;;;;;;;39.08;16.67;;;4.00;99.90;;;;;;2097452;28;20020;-72
2022/01/15 04:29:31;;;;;;;38.53;17.15;;;4.00;99.90;;;;;;2096777;28;20032;-70
2022/01/15 04:30:35;;;;;;;39.97;17.75;;;4.00;99.90;;;;;;2097146;28;20024;-71
2022/01/15 04:31:48;;;;;;;44.30;17.73;;;4.00;99.90;;;;;;2087956;28;20447;-71
2022/01/15 04:32:49;;;;;;;36.42;16.10;;;3.90;99.90;;;;;;2089604;28;20033;-70
2022/01/15 04:33:50;;;;;;;38.03;15.98;;;3.90;99.90;;;;;;2089184;28;20025;-70
2022/01/15 04:34:51;;;;;;;38.30;15.15;;;3.90;99.90;;;;;;2089361;28;20048;-71
2022/01/15 04:35:52;;;;;;;36.53;14.55;;;3.90;99.90;;;;;;2089442;28;20104;-70
2022/01/15 04:37:04;;;;;;;38.88;15.57;;;3.90;99.90;;;;;;2089139;28;20021;-70
2022/01/15 04:38:09;;;;;;;34.63;14.48;;;3.90;99.90;;;;;;2090979;28;20089;-70
2022/01/15 04:39:11;;;;;;;38.40;14.55;;;3.90;99.90;;;;;;2091207;28;20442;-71
2022/01/15 04:40:13;;;;;;;35.92;14.85;;;3.90;99.90;;;;;;2080640;28;20076;-69
2022/01/15 04:41:17;;;;;;;38.25;15.30;;;3.90;99.90;;;;;;2088543;28;20495;-70
2022/01/15 04:42:20;;;;;;;40.35;15.15;;;4.00;99.90;;;;;;2098614;28;20027;-70
2022/01/15 04:43:21;;;;;;;41.78;14.50;;;4.00;99.90;;;;;;2090679;28;20021;-70
2022/01/15 04:44:22;;;;;;;39.25;14.82;;;4.00;99.90;;;;;;2090386;28;20044;-69
2022/01/15 04:45:23;;;;;;;34.85;14.60;;;4.00;99.90;;;;;;2089833;28;20084;-70
2022/01/15 04:46:24;;;;;;;41.33;14.95;;;4.00;99.90;;;;;;2081510;28;20447;-69
2022/01/15 04:47:25;;;;;;;33.35;14.63;;;3.90;99.90;;;;;;2081706;28;20033;-69
2022/01/15 04:48:26;;;;;;;33.67;13.82;;;4.00;99.90;;;;;;2089571;28;20044;-70
2022/01/15 04:49:27;;;;;;;33.03;13.82;;;3.90;99.90;;;;;;2090468;28;20064;-71
2022/01/15 04:50:28;;;;;;;37.53;14.57;;;3.90;99.90;;;;;;2082726;28;20100;-70
2022/01/15 04:51:29;;;;;;;34.90;13.68;;;3.90;99.90;;;;;;2081717;28;20565;-70
2022/01/15 04:52:30;;;;;;;34.25;13.93;;;3.90;99.90;;;;;;2090878;28;20037;-72
2022/01/15 04:53:31;;;;;;;35.00;14.50;;;4.00;99.90;;;;;;2090395;28;20115;-69
2022/01/15 04:54:32;;;;;;;39.55;13.98;;;4.00;99.90;;;;;;2078823;28;20034;-69
2022/01/15 04:55:33;;;;;;;38.33;14.10;;;3.90;99.90;;;;;;2074316;28;20030;-70
2022/01/15 04:56:34;;;;;;;33.63;13.48;;;4.00;99.90;;;;;;2090409;28;20021;-69
2022/01/15 04:57:35;;;;;;;33.03;13.52;;;4.00;99.90;;;;;;2075650;28;20521;-73
2022/01/15 04:58:39;;;;;;;31.70;13.02;;;4.00;99.90;;;;;;2065788;28;20026;-69
2022/01/15 04:59:39;;;;;;;38.85;13.15;;;4.00;99.90;;;;;;2071908;28;20026;-69
2022/01/15 05:00:40;;;;;;;35.25;12.95;;;4.00;99.90;;;;;;2081496;28;20029;-70
2022/01/15 05:01:41;;;;;;;37.63;12.88;;;4.00;99.90;;;;;;2080746;28;20040;-69
2022/01/15 05:02:44;;;;;;;33.25;13.57;;;4.00;99.90;;;;;;2072400;28;20040;-70
2022/01/15 05:03:45;;;;;;;33.35;12.48;;;4.00;99.90;;;;;;2081391;28;20037;-69
2022/01/15 05:04:46;;;;;;;30.92;12.98;;;4.00;99.90;;;;;;2081919;28;20053;-70
2022/01/15 05:05:46;;;;;;;34.20;12.80;;;4.00;99.90;;;;;;2090141;28;20037;-69
2022/01/15 05:06:47;;;;;;;37.08;13.27;;;4.00;99.90;;;;;;2074054;28;20029;-69
2022/01/15 05:07:48;;;;;;;38.95;13.32;;;3.90;99.90;;;;;;2070214;28;20022;-72
2022/01/15 05:08:57;;;;;;;35.08;12.50;;;3.90;99.90;;;;;;2081290;28;20060;-71
2022/01/15 05:09:58;;;;;;;32.38;12.88;;;3.90;99.90;;;;;;2093183;28;20049;-71
2022/01/15 05:11:10;;;;;;;42.08;13.23;;;3.90;99.90;;;;;;2089379;28;20032;-71
2022/01/15 05:12:26;;;;;;;35.28;13.15;;;3.90;99.90;;;;;;2089901;28;20048;-70
2022/01/15 05:13:27;;;;;;;36.92;12.52;;;3.90;99.90;;;;;;2089125;28;20063;-70
2022/01/15 05:14:29;;;;;;;38.40;12.95;;;3.80;99.90;;;;;;2076703;28;20025;-72
2022/01/15 05:15:30;;;;;;;36.85;13.10;;;3.90;99.90;;;;;;2080807;28;20029;-71
2022/01/15 05:16:31;;;;;;;35.38;13.43;;;3.90;99.90;;;;;;2079874;28;20120;-71
2022/01/15 05:17:35;;;;;;;35.38;12.73;;;3.80;99.90;;;;;;2080987;28;20096;-71
2022/01/15 05:18:36;;;;;;;32.90;12.23;;;3.80;99.90;;;;;;2076245;28;20088;-72
2022/01/15 05:19:38;;;;;;;42.97;13.25;;;3.80;99.90;;;;;;2086097;28;20052;-71
2022/01/15 05:20:44;;;;;;;34.95;12.90;;;3.70;99.90;;;;;;2092566;28;20024;-71
2022/01/15 05:21:45;;;;;;;37.08;13.93;;;3.70;99.90;;;;;;2089130;28;20046;-71
2022/01/15 05:22:52;;;;;;;39.38;13.05;;;3.70;99.90;;;;;;2098373;28;20495;-71
2022/01/15 05:23:52;;;;;;;37.80;13.88;;;3.70;99.90;;;;;;2098471;28;20067;-70
2022/01/15 05:24:53;;;;;;;40.50;13.90;;;3.60;99.90;;;;;;2098183;28;20096;-71
2022/01/15 05:25:54;;;;;;;34.03;12.80;;;3.60;99.90;;;;;;2097807;28;20028;-70
2022/01/15 05:26:55;;;;;;;38.45;13.27;;;3.60;99.90;;;;;;2089528;28;20017;-70
2022/01/15 05:27:59;;;;;;;41.38;14.20;;;3.60;99.90;;;;;;2081749;28;20079;-71
2022/01/15 05:29:06;;;;;;;38.63;13.35;;;3.60;99.90;;;;;;2081072;28;20013;-71
2022/01/15 05:30:07;;;;;;;36.75;13.82;;;3.60;99.90;;;;;;2084218;28;20017;-71
2022/01/15 05:31:08;;;;;;;35.63;13.30;;;3.60;99.90;;;;;;2089905;28;20029;-71
2022/01/15 05:32:14;;;;;;;36.85;13.57;;;3.60;99.90;;;;;;2089218;28;20067;-73
2022/01/15 05:33:21;;;;;;;34.03;13.63;;;3.60;99.90;;;;;;2091484;28;20057;-70
2022/01/15 05:34:24;;;;;;;36.97;13.00;;;3.60;99.90;;;;;;2092988;28;20021;-70
2022/01/15 05:35:31;;;;;;;41.53;14.20;;;3.60;99.90;;;;;;2094451;28;20576;-70
2022/01/15 05:36:35;;;;;;;38.42;14.13;;;3.50;99.90;;;;;;2091553;28;20032;-71
2022/01/15 05:37:38;;;;;;;39.15;14.70;;;3.50;99.90;;;;;;2096574;28;20112;-70
2022/01/15 05:38:39;;;;;;;40.70;14.45;;;3.60;99.90;;;;;;2089260;28;20141;-70
2022/01/15 05:39:42;;;;;;;39.55;14.50;;;3.50;99.90;;;;;;2089328;28;20119;-70
2022/01/15 05:40:43;;;;;;;43.78;14.45;;;3.50;99.90;;;;;;2096290;28;20063;-71
2022/01/15 05:41:44;;;;;;;37.28;13.98;;;3.50;99.90;;;;;;2095246;28;20079;-72
2022/01/15 05:42:46;;;;;;;36.85;13.90;;;3.50;99.90;;;;;;2092393;28;20040;-71
2022/01/15 05:43:50;;;;;;;37.13;15.15;;;3.40;99.90;;;;;;2084688;28;20132;-70
2022/01/15 05:44:50;;;;;;;39.67;14.65;;;3.50;99.90;;;;;;2099540;28;20021;-71